createdAt,value
2019-02-02T00:00:23.432Z,21.40
2019-02-02T00:01:24.137Z,22.40
2019-02-02T00:02:23.429Z,21.20
2019-02-02T00:03:23.414Z,20.60
2019-02-02T00:04:23.419Z,19.70
2019-02-02T00:06:23.388Z,20.00
2019-02-02T00:07:23.378Z,19.70
2019-02-02T00:08:23.384Z,18.70
2019-02-02T00:09:23.385Z,19.60
2019-02-02T00:11:23.369Z,19.00
2019-02-02T00:12:23.358Z,19.20
2019-02-02T00:14:23.544Z,19.50
2019-02-02T00:15:23.327Z,19.00
2019-02-02T00:17:23.319Z,18.20
2019-02-02T00:18:23.297Z,17.90
2019-02-02T00:19:23.303Z,18.10
2019-02-02T00:20:23.302Z,18.70
2019-02-02T00:22:23.675Z,18.10
2019-02-02T00:23:31.159Z,18.20
2019-02-02T00:25:23.565Z,18.80
2019-02-02T00:26:23.262Z,18.60
2019-02-02T00:27:23.266Z,19.20
2019-02-02T00:28:23.246Z,19.50
2019-02-02T00:30:23.247Z,18.90
2019-02-02T00:31:23.645Z,19.00
2019-02-02T00:32:23.236Z,19.20
2019-02-02T00:33:23.417Z,19.90
2019-02-02T00:34:23.200Z,19.50
2019-02-02T00:36:23.202Z,18.60
2019-02-02T00:37:23.799Z,19.00
2019-02-02T00:38:23.383Z,17.80
2019-02-02T00:39:23.189Z,17.40
2019-02-02T00:40:23.367Z,17.70
2019-02-02T00:41:23.161Z,18.50
2019-02-02T00:42:23.164Z,18.90
2019-02-02T00:43:23.151Z,18.70
2019-02-02T00:45:23.144Z,18.00
2019-02-02T00:47:23.133Z,17.90
2019-02-02T00:48:23.119Z,17.90
2019-02-02T00:49:23.142Z,18.10
2019-02-02T00:51:23.518Z,17.30
2019-02-02T00:52:23.985Z,17.30
2019-02-02T00:53:23.096Z,18.80
2019-02-02T00:54:23.082Z,18.00
2019-02-02T00:57:23.259Z,18.00
2019-02-02T00:58:23.242Z,17.70
2019-02-02T00:59:23.281Z,17.60
2019-02-02T01:00:23.236Z,17.40
2019-02-02T01:01:23.222Z,17.70
2019-02-02T01:02:23.029Z,17.10
2019-02-02T01:03:23.012Z,17.60
2019-02-02T01:04:23.405Z,17.90
2019-02-02T01:06:23.029Z,17.80
2019-02-02T01:07:23.009Z,18.50
2019-02-02T01:09:23.192Z,17.70
2019-02-02T01:10:22.962Z,17.80
2019-02-02T01:11:23.575Z,18.90
2019-02-02T01:12:23.266Z,17.20
2019-02-02T01:13:22.967Z,17.50
2019-02-02T01:16:22.939Z,19.00
2019-02-02T01:17:22.970Z,17.60
2019-02-02T01:18:23.520Z,18.40
2019-02-02T01:19:23.341Z,17.50
2019-02-02T01:20:23.213Z,17.80
2019-02-02T01:21:22.921Z,17.60
2019-02-02T01:22:23.090Z,17.50
2019-02-02T01:23:22.890Z,17.80
2019-02-02T01:24:22.971Z,17.50
2019-02-02T01:25:22.896Z,17.60
2019-02-02T01:26:23.385Z,17.40
2019-02-02T01:27:23.074Z,17.70
2019-02-02T01:28:22.857Z,16.80
2019-02-02T01:29:22.836Z,16.30
2019-02-02T01:30:22.846Z,17.00
2019-02-02T01:31:23.058Z,16.60
2019-02-02T01:32:23.150Z,17.00
2019-02-02T01:33:23.038Z,16.90
2019-02-02T01:34:22.842Z,17.30
2019-02-02T01:35:23.360Z,16.20
2019-02-02T01:36:23.448Z,15.90
2019-02-02T01:37:22.807Z,15.90
2019-02-02T01:38:22.802Z,15.60
2019-02-02T01:39:22.775Z,15.90
2019-02-02T01:40:22.791Z,15.30
2019-02-02T01:41:22.779Z,15.40
2019-02-02T01:42:22.776Z,15.20
2019-02-02T01:43:22.979Z,15.10
2019-02-02T01:44:22.756Z,15.40
2019-02-02T01:45:22.749Z,17.00
2019-02-02T01:46:22.762Z,16.70
2019-02-02T01:47:22.757Z,16.20
2019-02-02T01:48:22.947Z,16.40
2019-02-02T01:49:23.036Z,15.30
2019-02-02T01:50:22.909Z,15.50
2019-02-02T01:51:22.724Z,14.90
2019-02-02T01:52:22.714Z,15.80
2019-02-02T01:53:22.714Z,15.60
2019-02-02T01:54:22.698Z,15.70
2019-02-02T01:55:22.687Z,15.30
2019-02-02T01:56:22.863Z,15.20
2019-02-02T01:57:22.674Z,14.80
2019-02-02T01:59:22.668Z,16.10
2019-02-02T02:00:23.057Z,14.80
2019-02-02T02:01:22.869Z,16.10
2019-02-02T02:02:23.038Z,15.10
2019-02-02T02:03:22.840Z,15.70
2019-02-02T02:04:22.843Z,15.40
2019-02-02T02:05:22.618Z,14.90
2019-02-02T02:06:22.829Z,14.80
2019-02-02T02:07:22.914Z,16.00
2019-02-02T02:08:22.607Z,16.40
2019-02-02T02:09:22.595Z,15.60
2019-02-02T02:10:23.112Z,15.40
2019-02-02T02:11:22.809Z,15.40
2019-02-02T02:12:22.688Z,15.50
2019-02-02T02:13:23.287Z,16.20
2019-02-02T02:14:22.575Z,14.10
2019-02-02T02:15:22.573Z,15.60
2019-02-02T02:16:22.559Z,16.50
2019-02-02T02:17:22.535Z,15.90
2019-02-02T02:19:22.553Z,16.50
2019-02-02T02:21:22.532Z,17.20
2019-02-02T02:22:22.719Z,16.50
2019-02-02T02:23:22.725Z,16.60
2019-02-02T02:24:22.528Z,16.80
2019-02-02T02:25:22.501Z,17.20
2019-02-02T02:26:22.708Z,17.40
2019-02-02T02:27:22.891Z,17.20
2019-02-02T02:28:28.291Z,17.60
2019-02-02T02:30:22.463Z,16.40
2019-02-02T02:31:22.450Z,17.10
2019-02-02T02:32:22.459Z,16.50
2019-02-02T02:34:23.048Z,16.80
2019-02-02T02:35:22.460Z,16.90
2019-02-02T02:36:22.933Z,16.10
2019-02-02T02:37:22.425Z,16.60
2019-02-02T02:38:22.416Z,16.60
2019-02-02T02:39:23.228Z,16.10
2019-02-02T02:40:22.407Z,16.60
2019-02-02T02:42:23.005Z,17.60
2019-02-02T02:43:22.389Z,17.10
2019-02-02T02:46:22.378Z,16.50
2019-02-02T02:47:22.362Z,17.10
2019-02-02T02:48:22.555Z,16.70
2019-02-02T02:49:22.353Z,17.20
2019-02-02T02:50:22.359Z,16.00
2019-02-02T02:51:22.354Z,16.50
2019-02-02T02:52:22.326Z,16.60
2019-02-02T02:53:22.339Z,17.20
2019-02-02T02:54:22.313Z,16.80
2019-02-02T02:55:22.319Z,16.90
2019-02-02T02:56:22.544Z,17.40
2019-02-02T02:57:22.494Z,16.40
2019-02-02T02:58:22.300Z,17.50
2019-02-02T02:59:22.308Z,17.00
2019-02-02T03:00:22.286Z,16.60
2019-02-02T03:02:22.256Z,16.90
2019-02-02T03:03:22.483Z,17.40
2019-02-02T03:04:22.268Z,17.90
2019-02-02T03:05:22.444Z,17.80
2019-02-02T03:06:22.270Z,16.70
2019-02-02T03:07:22.227Z,16.10
2019-02-02T03:08:22.451Z,17.00
2019-02-02T03:09:22.237Z,17.40
2019-02-02T03:10:22.234Z,18.50
2019-02-02T03:11:22.211Z,18.30
2019-02-02T03:12:22.217Z,18.60
2019-02-02T03:13:22.399Z,23.70
2019-02-02T03:14:22.196Z,23.10
2019-02-02T03:15:22.410Z,22.80
2019-02-02T03:16:22.175Z,20.00
2019-02-02T03:17:22.176Z,19.20
2019-02-02T03:18:22.483Z,19.50
2019-02-02T03:19:22.373Z,19.30
2019-02-02T03:20:22.142Z,18.70
2019-02-02T03:21:22.343Z,18.10
2019-02-02T03:22:22.140Z,18.10
2019-02-02T03:23:22.143Z,19.60
2019-02-02T03:24:22.126Z,19.30
2019-02-02T03:25:22.130Z,19.50
2019-02-02T03:26:22.138Z,19.60
2019-02-02T03:27:22.109Z,19.60
2019-02-02T03:28:22.316Z,20.10
2019-02-02T03:29:22.107Z,19.90
2019-02-02T03:30:22.113Z,18.90
2019-02-02T03:32:22.089Z,19.80
2019-02-02T03:33:22.109Z,20.60
2019-02-02T03:34:22.282Z,20.60
2019-02-02T03:35:22.086Z,20.20
2019-02-02T03:36:22.255Z,20.60
2019-02-02T03:37:22.240Z,20.50
2019-02-02T03:38:22.236Z,21.30
2019-02-02T03:39:22.037Z,22.00
2019-02-02T03:40:22.055Z,22.00
2019-02-02T03:41:22.107Z,22.40
2019-02-02T03:43:22.208Z,23.70
2019-02-02T03:44:22.527Z,23.70
2019-02-02T03:45:22.214Z,24.70
2019-02-02T03:46:22.204Z,24.60
2019-02-02T03:47:21.989Z,25.30
2019-02-02T03:48:21.988Z,24.70
2019-02-02T03:49:21.982Z,25.60
2019-02-02T03:50:22.385Z,25.50
2019-02-02T03:51:21.962Z,25.20
2019-02-02T03:52:21.956Z,25.40
2019-02-02T03:53:21.961Z,24.70
2019-02-02T03:55:21.934Z,24.30
2019-02-02T03:56:21.933Z,26.30
2019-02-02T03:57:21.919Z,24.30
2019-02-02T03:58:22.128Z,22.80
2019-02-02T03:59:21.929Z,23.40
2019-02-02T04:00:21.908Z,26.20
2019-02-02T04:02:22.112Z,25.60
2019-02-02T04:04:22.293Z,24.80
2019-02-02T04:06:23.011Z,24.60
2019-02-02T04:07:21.870Z,25.10
2019-02-02T04:08:21.861Z,24.70
2019-02-02T04:09:21.848Z,25.00
2019-02-02T04:10:22.046Z,24.80
2019-02-02T04:11:21.833Z,25.00
2019-02-02T04:12:21.823Z,24.70
2019-02-02T04:13:22.219Z,24.10
2019-02-02T04:14:21.814Z,24.40
2019-02-02T04:15:21.822Z,25.60
2019-02-02T04:16:22.009Z,25.10
2019-02-02T04:17:21.817Z,24.80
2019-02-02T04:18:21.792Z,25.20
2019-02-02T04:19:21.783Z,24.90
2019-02-02T04:20:21.791Z,23.80
2019-02-02T04:21:22.082Z,25.30
2019-02-02T04:22:21.782Z,26.30
2019-02-02T04:23:22.178Z,25.50
2019-02-02T04:24:22.276Z,25.20
2019-02-02T04:25:21.763Z,25.80
2019-02-02T04:26:21.939Z,25.90
2019-02-02T04:27:21.742Z,24.90
2019-02-02T04:29:21.716Z,25.60
2019-02-02T04:30:21.716Z,25.60
2019-02-02T04:31:21.914Z,25.40
2019-02-02T04:32:21.727Z,25.50
2019-02-02T04:34:21.690Z,24.40
2019-02-02T04:36:21.664Z,23.80
2019-02-02T04:37:21.673Z,24.70
2019-02-02T04:38:21.672Z,24.30
2019-02-02T04:39:21.861Z,23.90
2019-02-02T04:41:21.867Z,24.10
2019-02-02T04:42:21.653Z,23.00
2019-02-02T04:43:21.841Z,23.70
2019-02-02T04:44:21.623Z,22.20
2019-02-02T04:45:22.534Z,24.20
2019-02-02T04:46:22.129Z,22.80
2019-02-02T04:47:21.908Z,21.70
2019-02-02T04:48:21.610Z,22.60
2019-02-02T04:49:22.109Z,21.60
2019-02-02T04:50:21.634Z,22.20
2019-02-02T04:51:21.788Z,22.30
2019-02-02T04:52:21.575Z,21.20
2019-02-02T04:53:21.596Z,22.20
2019-02-02T04:54:21.785Z,22.70
2019-02-02T04:55:21.579Z,22.30
2019-02-02T04:56:21.553Z,20.70
2019-02-02T04:57:21.733Z,20.70
2019-02-02T04:58:21.755Z,22.70
2019-02-02T04:59:29.034Z,22.40
2019-02-02T05:00:21.547Z,21.30
2019-02-02T05:01:21.530Z,22.10
2019-02-02T05:02:21.520Z,22.20
2019-02-02T05:03:21.706Z,20.90
2019-02-02T05:04:21.511Z,20.40
2019-02-02T05:06:21.492Z,21.10
2019-02-02T05:07:22.087Z,20.60
2019-02-02T05:08:21.687Z,21.10
2019-02-02T05:09:21.481Z,19.80
2019-02-02T05:10:21.495Z,20.80
2019-02-02T05:11:21.679Z,22.40
2019-02-02T05:12:21.446Z,22.70
2019-02-02T05:13:21.449Z,22.30
2019-02-02T05:15:21.440Z,20.50
2019-02-02T05:16:21.614Z,22.60
2019-02-02T05:17:21.438Z,20.50
2019-02-02T05:18:21.625Z,21.90
2019-02-02T05:19:21.408Z,22.20
2019-02-02T05:20:21.406Z,24.40
2019-02-02T05:21:21.620Z,23.10
2019-02-02T05:22:21.699Z,23.50
2019-02-02T05:24:21.387Z,23.80
2019-02-02T05:25:21.396Z,23.30
2019-02-02T05:26:21.579Z,24.30
2019-02-02T05:27:21.368Z,24.20
2019-02-02T05:29:21.556Z,24.70
2019-02-02T05:30:21.559Z,24.10
2019-02-02T05:31:21.344Z,24.10
2019-02-02T05:32:21.765Z,22.60
2019-02-02T05:33:21.530Z,22.40
2019-02-02T05:34:21.327Z,22.90
2019-02-02T05:35:21.336Z,22.60
2019-02-02T05:36:21.301Z,22.60
2019-02-02T05:37:22.008Z,21.40
2019-02-02T05:38:21.284Z,23.10
2019-02-02T05:40:21.286Z,20.80
2019-02-02T05:41:21.286Z,22.00
2019-02-02T05:42:21.264Z,22.10
2019-02-02T05:43:21.455Z,21.10
2019-02-02T05:45:21.255Z,21.50
2019-02-02T05:46:21.668Z,20.90
2019-02-02T05:47:21.254Z,20.00
2019-02-02T05:49:21.457Z,19.70
2019-02-02T05:50:21.230Z,20.80
2019-02-02T05:51:21.428Z,20.20
2019-02-02T05:52:21.209Z,20.00
2019-02-02T05:53:21.507Z,20.20
2019-02-02T05:54:21.218Z,19.90
2019-02-02T05:56:21.405Z,19.80
2019-02-02T05:58:21.165Z,19.30
2019-02-02T05:59:21.174Z,19.60
2019-02-02T06:00:21.161Z,19.50
2019-02-02T06:01:21.355Z,19.00
2019-02-02T06:02:21.372Z,19.10
2019-02-02T06:04:21.139Z,18.00
2019-02-02T06:05:21.123Z,18.80
2019-02-02T06:06:21.144Z,18.90
2019-02-02T06:07:21.100Z,18.10
2019-02-02T06:08:21.520Z,18.90
2019-02-02T06:09:22.903Z,17.90
2019-02-02T06:10:21.088Z,18.60
2019-02-02T06:11:21.106Z,18.50
2019-02-02T06:12:21.300Z,17.30
2019-02-02T06:13:21.097Z,17.80
2019-02-02T06:14:21.062Z,18.20
2019-02-02T06:15:21.185Z,18.10
2019-02-02T06:16:21.302Z,18.30
2019-02-02T06:17:21.284Z,18.30
2019-02-02T06:18:21.244Z,18.00
2019-02-02T06:20:21.233Z,17.30
2019-02-02T06:21:21.350Z,17.80
2019-02-02T06:22:21.034Z,17.10
2019-02-02T06:23:21.244Z,16.50
2019-02-02T06:24:21.039Z,17.50
2019-02-02T06:25:21.051Z,18.30
2019-02-02T06:26:21.223Z,16.60
2019-02-02T06:27:21.002Z,17.10
2019-02-02T06:28:20.989Z,16.40
2019-02-02T06:29:21.227Z,16.40
2019-02-02T06:30:20.966Z,17.20
2019-02-02T06:31:21.004Z,15.80
2019-02-02T06:32:20.958Z,15.90
2019-02-02T06:33:20.957Z,17.00
2019-02-02T06:35:21.239Z,15.80
2019-02-02T06:36:21.150Z,15.60
2019-02-02T06:37:20.956Z,15.40
2019-02-02T06:38:20.933Z,16.30
2019-02-02T06:39:21.531Z,15.80
2019-02-02T06:40:20.918Z,15.80
2019-02-02T06:41:21.130Z,16.40
2019-02-02T06:44:20.892Z,14.80
2019-02-02T06:45:21.404Z,15.70
2019-02-02T06:46:20.889Z,15.00
2019-02-02T06:47:21.075Z,15.10
2019-02-02T06:48:20.861Z,15.20
2019-02-02T06:51:20.846Z,13.80
2019-02-02T06:52:21.048Z,14.30
2019-02-02T06:54:20.839Z,14.60
2019-02-02T06:55:21.034Z,13.90
2019-02-02T06:57:20.838Z,14.20
2019-02-02T06:58:21.025Z,14.40
2019-02-02T06:59:20.798Z,13.90
2019-02-02T07:00:20.801Z,13.80
2019-02-02T07:01:20.818Z,14.40
2019-02-02T07:02:20.795Z,14.20
2019-02-02T07:03:20.784Z,13.60
2019-02-02T07:04:20.776Z,13.70
2019-02-02T07:05:20.766Z,13.30
2019-02-02T07:06:20.769Z,13.60
2019-02-02T07:08:20.948Z,12.70
2019-02-02T07:10:20.752Z,14.30
2019-02-02T07:11:20.749Z,13.40
2019-02-02T07:13:20.744Z,13.20
2019-02-02T07:14:21.059Z,13.40
2019-02-02T07:15:21.247Z,13.40
2019-02-02T07:16:20.894Z,12.90
2019-02-02T07:17:20.700Z,13.60
2019-02-02T07:18:20.696Z,13.10
2019-02-02T07:19:20.884Z,13.00
2019-02-02T07:20:20.670Z,12.80
2019-02-02T07:21:20.820Z,13.20
2019-02-02T07:22:20.667Z,13.30
2019-02-02T07:23:20.876Z,13.60
2019-02-02T07:24:20.992Z,12.70
2019-02-02T07:25:20.645Z,13.40
2019-02-02T07:26:21.166Z,12.40
2019-02-02T07:27:20.640Z,13.30
2019-02-02T07:28:20.847Z,13.20
2019-02-02T07:29:20.621Z,13.90
2019-02-02T07:30:28.269Z,12.90
2019-02-02T07:31:20.611Z,13.70
2019-02-02T07:32:20.826Z,12.90
2019-02-02T07:33:20.623Z,12.80
2019-02-02T07:34:20.619Z,13.70
2019-02-02T07:35:21.319Z,13.40
2019-02-02T07:36:20.601Z,13.70
2019-02-02T07:37:20.797Z,12.40
2019-02-02T07:38:20.791Z,13.20
2019-02-02T07:39:20.587Z,13.40
2019-02-02T07:40:20.753Z,14.00
2019-02-02T07:41:20.567Z,13.20
2019-02-02T07:42:20.766Z,12.80
2019-02-02T07:46:20.531Z,14.70
2019-02-02T07:47:21.443Z,14.20
2019-02-02T07:48:20.716Z,13.60
2019-02-02T07:50:20.499Z,14.50
2019-02-02T07:51:20.706Z,14.60
2019-02-02T07:52:20.709Z,15.30
2019-02-02T07:53:20.483Z,14.90
2019-02-02T07:54:20.491Z,14.80
2019-02-02T07:55:20.486Z,14.90
2019-02-02T07:56:20.671Z,15.20
2019-02-02T07:57:20.458Z,15.70
2019-02-02T07:58:20.456Z,15.70
2019-02-02T07:59:20.440Z,15.50
2019-02-02T08:00:20.430Z,15.30
2019-02-02T08:01:20.638Z,15.70
2019-02-02T08:02:20.435Z,15.50
2019-02-02T08:03:20.415Z,15.70
2019-02-02T08:04:20.793Z,15.90
2019-02-02T08:05:20.432Z,15.50
2019-02-02T08:06:20.808Z,16.50
2019-02-02T08:07:20.405Z,16.90
2019-02-02T08:09:20.396Z,16.30
2019-02-02T08:10:20.387Z,16.00
2019-02-02T08:11:20.587Z,17.00
2019-02-02T08:12:20.370Z,17.30
2019-02-02T08:13:20.395Z,16.40
2019-02-02T08:14:20.377Z,16.90
2019-02-02T08:15:20.371Z,17.80
2019-02-02T08:16:20.358Z,18.10
2019-02-02T08:17:20.373Z,18.20
2019-02-02T08:19:20.364Z,19.50
2019-02-02T08:20:20.334Z,20.00
2019-02-02T08:21:20.538Z,20.60
2019-02-02T08:22:20.326Z,21.40
2019-02-02T08:23:20.646Z,21.60
2019-02-02T08:24:20.614Z,22.50
2019-02-02T08:25:20.304Z,23.90
2019-02-02T08:27:20.298Z,24.70
2019-02-02T08:28:21.740Z,25.20
2019-02-02T08:29:20.304Z,25.20
2019-02-02T08:30:20.277Z,26.10
2019-02-02T08:31:20.258Z,26.90
2019-02-02T08:32:20.259Z,27.00
2019-02-02T08:33:20.310Z,27.60
2019-02-02T08:34:20.266Z,28.10
2019-02-02T08:35:20.259Z,30.30
2019-02-02T08:36:20.257Z,29.10
2019-02-02T08:37:20.218Z,30.10
2019-02-02T08:38:20.213Z,30.80
2019-02-02T08:39:28.935Z,30.10
2019-02-02T08:40:20.202Z,31.50
2019-02-02T08:41:20.208Z,30.40
2019-02-02T08:42:20.211Z,30.80
2019-02-02T08:43:20.207Z,32.10
2019-02-02T08:44:20.200Z,30.40
2019-02-02T08:45:20.210Z,32.00
2019-02-02T08:46:20.179Z,31.50
2019-02-02T08:47:20.358Z,33.20
2019-02-02T08:48:20.161Z,33.50
2019-02-02T08:49:20.178Z,33.80
2019-02-02T08:50:20.142Z,32.00
2019-02-02T08:51:20.172Z,33.40
2019-02-02T08:53:20.144Z,33.40
2019-02-02T08:54:20.318Z,35.80
2019-02-02T08:55:20.214Z,36.40
2019-02-02T08:56:20.164Z,36.50
2019-02-02T08:57:20.318Z,35.00
2019-02-02T08:58:20.110Z,34.50
2019-02-02T08:59:20.116Z,34.40
2019-02-02T09:00:20.121Z,34.90
2019-02-02T09:01:20.101Z,34.90
2019-02-02T09:02:20.102Z,33.70
2019-02-02T09:03:20.219Z,34.00
2019-02-02T09:04:20.098Z,34.00
2019-02-02T09:05:20.171Z,34.80
2019-02-02T09:06:20.138Z,33.00
2019-02-02T09:08:20.264Z,34.00
2019-02-02T09:09:20.037Z,34.80
2019-02-02T09:10:20.025Z,33.70
2019-02-02T09:11:20.021Z,34.80
2019-02-02T09:12:20.044Z,33.60
2019-02-02T09:13:20.004Z,36.30
2019-02-02T09:14:20.022Z,34.20
2019-02-02T09:15:20.007Z,34.90
2019-02-02T09:16:19.986Z,36.40
2019-02-02T09:18:19.980Z,39.10
2019-02-02T09:19:20.177Z,40.10
2019-02-02T09:21:19.967Z,43.60
2019-02-02T09:22:19.968Z,43.00
2019-02-02T09:24:19.943Z,45.30
2019-02-02T09:25:19.936Z,46.00
2019-02-02T09:26:19.945Z,47.30
2019-02-02T09:27:19.931Z,48.20
2019-02-02T09:28:19.930Z,56.50
2019-02-02T09:29:20.315Z,71.40
2019-02-02T09:30:20.123Z,85.40
2019-02-02T09:31:19.912Z,54.80
2019-02-02T09:32:20.305Z,47.10
2019-02-02T09:33:20.093Z,44.80
2019-02-02T09:34:20.079Z,44.20
2019-02-02T09:35:20.495Z,45.00
2019-02-02T09:36:20.082Z,44.70
2019-02-02T09:37:19.886Z,45.40
2019-02-02T09:38:19.853Z,46.10
2019-02-02T09:39:19.875Z,46.60
2019-02-02T09:40:19.841Z,46.10
2019-02-02T09:41:19.847Z,49.00
2019-02-02T09:42:19.839Z,46.20
2019-02-02T09:43:20.024Z,44.70
2019-02-02T09:44:19.816Z,42.80
2019-02-02T09:45:20.008Z,41.30
2019-02-02T09:46:19.824Z,39.60
2019-02-02T09:47:20.272Z,37.40
2019-02-02T09:48:19.788Z,35.10
2019-02-02T09:49:20.125Z,34.60
2019-02-02T09:50:19.778Z,35.10
2019-02-02T09:51:19.776Z,35.30
2019-02-02T09:52:19.768Z,36.00
2019-02-02T09:53:19.762Z,35.90
2019-02-02T09:54:26.507Z,35.80
2019-02-02T09:55:20.193Z,36.70
2019-02-02T09:56:19.766Z,36.50
2019-02-02T09:57:19.754Z,36.30
2019-02-02T09:58:19.733Z,35.40
2019-02-02T10:00:19.726Z,35.10
2019-02-02T10:01:27.543Z,33.90
2019-02-02T10:02:19.699Z,34.00
2019-02-02T10:03:19.707Z,37.00
2019-02-02T10:04:19.714Z,37.00
2019-02-02T10:05:20.096Z,37.30
2019-02-02T10:06:19.683Z,52.40
2019-02-02T10:07:19.684Z,39.50
2019-02-02T10:08:19.676Z,41.80
2019-02-02T10:09:19.664Z,41.50
2019-02-02T10:10:20.034Z,42.80
2019-02-02T10:12:21.110Z,45.00
2019-02-02T10:13:19.649Z,46.20
2019-02-02T10:14:19.631Z,45.50
2019-02-02T10:15:19.819Z,45.70
2019-02-02T10:16:19.652Z,46.90
2019-02-02T10:17:19.602Z,49.00
2019-02-02T10:18:19.606Z,50.00
2019-02-02T10:19:19.611Z,49.30
2019-02-02T10:20:19.608Z,50.10
2019-02-02T10:21:19.610Z,50.40
2019-02-02T10:22:19.691Z,50.70
2019-02-02T10:23:19.602Z,52.10
2019-02-02T10:24:19.766Z,50.80
2019-02-02T10:25:19.969Z,49.90
2019-02-02T10:26:19.619Z,50.20
2019-02-02T10:27:19.742Z,51.80
2019-02-02T10:28:19.538Z,50.90
2019-02-02T10:29:19.549Z,50.20
2019-02-02T10:30:22.603Z,50.90
2019-02-02T10:31:19.597Z,51.90
2019-02-02T10:32:19.510Z,50.90
2019-02-02T10:33:19.555Z,49.60
2019-02-02T10:34:19.512Z,51.30
2019-02-02T10:35:19.488Z,51.80
2019-02-02T10:36:20.226Z,49.20
2019-02-02T10:37:19.582Z,49.30
2019-02-02T10:38:19.811Z,49.70
2019-02-02T10:39:19.479Z,50.40
2019-02-02T10:40:19.472Z,49.40
2019-02-02T10:41:19.461Z,50.50
2019-02-02T10:42:19.488Z,49.50
2019-02-02T10:43:19.951Z,48.70
2019-02-02T10:44:19.421Z,48.10
2019-02-02T10:45:19.426Z,49.30
2019-02-02T10:46:19.406Z,50.00
2019-02-02T10:47:19.400Z,50.40
2019-02-02T10:48:19.597Z,52.50
2019-02-02T10:49:19.395Z,53.30
2019-02-02T10:50:19.407Z,55.80
2019-02-02T10:51:19.373Z,55.30
2019-02-02T10:52:19.696Z,55.80
2019-02-02T10:53:19.353Z,59.00
2019-02-02T10:54:19.367Z,60.60
2019-02-02T10:55:19.343Z,60.00
2019-02-02T10:56:19.347Z,59.30
2019-02-02T10:57:19.357Z,61.50
2019-02-02T10:58:19.333Z,64.00
2019-02-02T10:59:19.532Z,62.90
2019-02-02T11:00:19.308Z,64.30
2019-02-02T11:01:19.826Z,65.50
2019-02-02T11:02:19.312Z,67.20
2019-02-02T11:03:19.328Z,67.30
2019-02-02T11:04:19.530Z,67.50
2019-02-02T11:05:19.294Z,66.00
2019-02-02T11:06:19.314Z,67.70
2019-02-02T11:08:19.409Z,67.30
2019-02-02T11:09:19.261Z,67.40
2019-02-02T11:10:19.267Z,69.00
2019-02-02T11:11:19.306Z,68.40
2019-02-02T11:13:19.292Z,70.20
2019-02-02T11:14:19.354Z,68.00
2019-02-02T11:15:19.433Z,69.20
2019-02-02T11:16:19.282Z,66.50
2019-02-02T11:17:19.224Z,63.90
2019-02-02T11:18:19.491Z,64.30
2019-02-02T11:19:19.241Z,62.20
2019-02-02T11:20:19.217Z,65.00
2019-02-02T11:21:19.371Z,61.80
2019-02-02T11:22:19.251Z,62.90
2019-02-02T11:23:19.365Z,61.10
2019-02-02T11:24:19.428Z,60.10
2019-02-02T11:25:19.186Z,58.50
2019-02-02T11:26:20.017Z,59.30
2019-02-02T11:27:19.242Z,59.40
2019-02-02T11:28:19.410Z,58.10
2019-02-02T11:29:19.209Z,57.50
2019-02-02T11:30:19.523Z,56.40
2019-02-02T11:31:19.181Z,58.30
2019-02-02T11:32:19.202Z,58.00
2019-02-02T11:33:19.085Z,57.90
2019-02-02T11:34:19.331Z,54.60
2019-02-02T11:35:19.140Z,55.00
2019-02-02T11:36:19.121Z,57.10
2019-02-02T11:37:19.230Z,55.30
2019-02-02T11:38:19.448Z,54.10
2019-02-02T11:39:19.150Z,54.40
2019-02-02T11:40:19.053Z,53.90
2019-02-02T11:41:19.048Z,52.70
2019-02-02T11:42:19.158Z,52.80
2019-02-02T11:44:20.100Z,52.80
2019-02-02T11:45:19.116Z,50.80
2019-02-02T11:46:19.022Z,50.80
2019-02-02T11:47:19.067Z,50.40
2019-02-02T11:48:19.033Z,50.30
2019-02-02T11:49:19.072Z,49.40
2019-02-02T11:50:19.305Z,49.30
2019-02-02T11:51:19.005Z,50.10
2019-02-02T11:52:19.145Z,52.10
2019-02-02T11:53:19.000Z,51.10
2019-02-02T11:54:19.028Z,51.20
2019-02-02T11:55:18.947Z,50.40
2019-02-02T11:56:19.208Z,52.70
2019-02-02T11:57:18.953Z,53.90
2019-02-02T11:58:19.137Z,52.80
2019-02-02T11:59:19.512Z,53.30
2019-02-02T12:00:18.916Z,54.20
2019-02-02T12:01:19.020Z,55.00
2019-02-02T12:02:19.162Z,54.10
2019-02-02T12:03:18.983Z,54.20
2019-02-02T12:04:18.866Z,55.40
2019-02-02T12:05:18.863Z,54.40
2019-02-02T12:06:18.852Z,56.70
2019-02-02T12:07:19.560Z,56.20
2019-02-02T12:08:18.870Z,55.60
2019-02-02T12:09:18.841Z,54.00
2019-02-02T12:10:18.847Z,55.10
2019-02-02T12:11:18.871Z,56.40
2019-02-02T12:12:19.008Z,56.00
2019-02-02T12:13:18.801Z,56.60
2019-02-02T12:14:18.801Z,57.10
2019-02-02T12:15:18.802Z,55.00
2019-02-02T12:16:18.792Z,56.70
2019-02-02T12:17:18.765Z,54.60
2019-02-02T12:18:18.770Z,56.60
2019-02-02T12:19:19.477Z,56.30
2019-02-02T12:20:19.171Z,55.00
2019-02-02T12:21:18.761Z,56.60
2019-02-02T12:22:18.754Z,57.10
2019-02-02T12:23:18.940Z,57.40
2019-02-02T12:24:18.701Z,58.20
2019-02-02T12:25:19.540Z,59.50
2019-02-02T12:26:18.899Z,57.90
2019-02-02T12:27:18.901Z,59.00
2019-02-02T12:28:18.885Z,59.90
2019-02-02T12:29:18.880Z,60.40
2019-02-02T12:30:18.986Z,59.60
2019-02-02T12:32:26.378Z,61.10
2019-02-02T12:33:18.642Z,61.70
2019-02-02T12:34:18.656Z,63.00
2019-02-02T12:35:18.831Z,61.80
2019-02-02T12:36:18.628Z,63.00
2019-02-02T12:39:18.818Z,66.60
2019-02-02T12:40:18.604Z,65.80
2019-02-02T12:41:18.627Z,66.10
2019-02-02T12:42:19.387Z,66.40
2019-02-02T12:43:18.575Z,67.10
2019-02-02T12:44:18.780Z,69.80
2019-02-02T12:45:18.554Z,70.20
2019-02-02T12:48:18.562Z,69.90
2019-02-02T12:49:18.722Z,74.20
2019-02-02T12:50:18.562Z,73.40
2019-02-02T12:51:18.509Z,75.00
2019-02-02T12:52:18.512Z,73.70
2019-02-02T12:53:18.504Z,75.30
2019-02-02T12:54:18.476Z,76.50
2019-02-02T12:55:18.480Z,76.60
2019-02-02T12:56:18.495Z,75.90
2019-02-02T12:57:18.464Z,77.10
2019-02-02T12:58:18.469Z,78.00
2019-02-02T12:59:18.452Z,79.90
2019-02-02T13:00:18.446Z,83.50
2019-02-02T13:02:18.442Z,79.30
2019-02-02T13:03:18.430Z,80.00
2019-02-02T13:04:18.420Z,79.90
2019-02-02T13:05:19.226Z,80.90
2019-02-02T13:06:18.392Z,79.40
2019-02-02T13:07:18.381Z,82.70
2019-02-02T13:08:18.400Z,78.70
2019-02-02T13:09:19.093Z,79.90
2019-02-02T13:10:18.370Z,81.20
2019-02-02T13:11:18.350Z,80.40
2019-02-02T13:12:18.344Z,80.40
2019-02-02T13:13:18.351Z,80.30
2019-02-02T13:14:18.342Z,79.50
2019-02-02T13:15:18.347Z,80.60
2019-02-02T13:16:18.334Z,80.50
2019-02-02T13:17:19.684Z,79.30
2019-02-02T13:20:18.602Z,81.30
2019-02-02T13:21:18.290Z,81.80
2019-02-02T13:22:19.716Z,81.60
2019-02-02T13:23:18.387Z,78.80
2019-02-02T13:24:18.338Z,83.70
2019-02-02T13:25:18.454Z,81.60
2019-02-02T13:26:18.458Z,84.60
2019-02-02T13:27:18.233Z,82.90
2019-02-02T13:28:18.240Z,81.40
2019-02-02T13:29:18.222Z,84.60
2019-02-02T13:30:18.204Z,84.70
2019-02-02T13:31:21.079Z,82.80
2019-02-02T13:33:18.192Z,83.50
2019-02-02T13:34:18.408Z,84.10
2019-02-02T13:35:18.390Z,81.80
2019-02-02T13:36:18.571Z,79.20
2019-02-02T13:37:18.178Z,75.40
2019-02-02T13:38:18.558Z,75.80
2019-02-02T13:39:18.456Z,74.70
2019-02-02T13:40:18.649Z,75.90
2019-02-02T13:41:18.328Z,77.50
2019-02-02T13:42:18.129Z,74.90
2019-02-02T13:43:18.125Z,76.30
2019-02-02T13:44:18.110Z,73.30
2019-02-02T13:45:18.314Z,73.50
2019-02-02T13:47:18.607Z,69.00
2019-02-02T13:48:18.277Z,68.60
2019-02-02T13:49:18.114Z,69.40
2019-02-02T13:50:18.309Z,68.20
2019-02-02T13:51:18.053Z,63.90
2019-02-02T13:53:18.041Z,65.60
2019-02-02T13:54:18.044Z,65.10
2019-02-02T13:56:18.019Z,63.00
2019-02-02T13:57:18.019Z,63.20
2019-02-02T13:58:18.218Z,64.30
2019-02-02T13:59:18.180Z,64.00
2019-02-02T14:00:18.130Z,64.10
2019-02-02T14:01:18.183Z,64.10
2019-02-02T14:02:18.158Z,59.80
2019-02-02T14:03:18.148Z,59.30
2019-02-02T14:04:18.338Z,59.80
2019-02-02T14:05:18.164Z,62.00
2019-02-02T14:09:17.933Z,60.50
2019-02-02T14:10:18.630Z,61.50
2019-02-02T14:11:17.900Z,61.70
2019-02-02T14:12:17.896Z,60.30
2019-02-02T14:13:18.087Z,56.60
2019-02-02T14:14:17.897Z,59.10
2019-02-02T14:15:17.881Z,56.00
2019-02-02T14:16:17.863Z,58.70
2019-02-02T14:17:18.237Z,57.40
2019-02-02T14:18:17.864Z,58.60
2019-02-02T14:19:18.065Z,57.20
2019-02-02T14:20:17.835Z,58.40
2019-02-02T14:21:18.041Z,58.70